Time;durP1;ratioP1;P1;durP2;ratioP2;P2;SDS_P1;SDS_P2;PMS_P1;PMS_P2;Temp;Humidity;BMP_temperature;BMP_pressure;BME280_temperature;BME280_humidity;BME280_pressure;Samples;Min_cycle;Max_cycle;Signal;HPM_P1;HPM_P2
2023/09/25 00:02:01;;;;;;;2.40;1.10;;;;;;;9.28;64.19;100737.75;10297266;28;20497;-61
2023/09/25 00:07:04;;;;;;;1.50;1.00;;;;;;;9.37;64.26;100743.41;10265033;28;20043;-61
2023/09/25 00:12:06;;;;;;;1.52;1.10;;;;;;;9.46;64.23;100739.56;10298273;28;20051;-61
2023/09/25 00:17:08;;;;;;;7.20;1.50;;;;;;;9.38;64.38;100742.47;10297915;28;20031;-61
2023/09/25 00:22:10;;;;;;;4.35;1.30;;;;;;;9.37;64.46;100743.41;10281201;28;20573;-61
2023/09/25 00:27:12;;;;;;;3.47;1.10;;;;;;;9.26;64.42;100745.59;10298105;28;20490;-61
2023/09/25 00:32:14;;;;;;;5.22;1.50;;;;;;;9.09;64.79;100742.88;10279721;28;20180;-61
2023/09/25 00:37:16;;;;;;;1.70;1.02;;;;;;;9.02;64.57;100740.53;10263737;28;20057;-61
2023/09/25 00:42:18;;;;;;;1.95;1.10;;;;;;;8.93;64.83;100733.09;10296092;28;20061;-60
2023/09/25 00:47:21;;;;;;;2.63;1.20;;;;;;;8.97;64.64;100732.94;10278222;28;20057;-61
2023/09/25 00:52:25;;;;;;;1.33;1.05;;;;;;;9.05;64.59;100732.59;10311014;28;20220;-61
2023/09/25 00:57:28;;;;;;;1.63;1.08;;;;;;;9.02;64.46;100732.72;10297842;28;20046;-61
2023/09/25 01:02:33;;;;;;;1.30;1.10;;;;;;;8.86;64.42;100732.50;10296644;28;20136;-61
2023/09/25 01:07:40;;;;;;;11.80;1.60;;;;;;;8.66;64.64;100733.28;10279146;28;20391;-60
2023/09/25 01:12:46;;;;;;;1.13;1.00;;;;;;;8.57;64.66;100744.06;10298119;28;20120;-61
2023/09/25 01:17:48;;;;;;;1.60;1.08;;;;;;;8.55;64.58;100737.19;10309082;28;20052;-61
2023/09/25 01:22:50;;;;;;;0.80;0.80;;;;;;;8.53;64.56;100734.66;10295258;28;20472;-61
2023/09/25 01:27:52;;;;;;;17.58;1.48;;;;;;;8.58;64.84;100726.66;10311440;28;20290;-61
2023/09/25 01:32:54;;;;;;;5.68;1.40;;;;;;;8.62;64.57;100726.50;10275929;28;20053;-61
2023/09/25 01:37:58;;;;;;;9.98;1.67;;;;;;;8.51;64.55;100718.22;10296208;28;20050;-61
2023/09/25 01:43:01;;;;;;;4.88;1.40;;;;;;;8.27;64.77;100710.50;10277650;28;20062;-61
2023/09/25 01:48:03;;;;;;;1.50;0.88;;;;;;;8.15;64.88;100706.63;10296351;28;21167;-61
2023/09/25 01:53:05;;;;;;;1.52;1.00;;;;;;;8.22;64.98;100696.81;10295078;28;20470;-61
2023/09/25 01:58:08;;;;;;;2.17;1.20;;;;;;;8.25;64.88;100704.50;10263031;28;20047;-61
2023/09/25 02:03:10;;;;;;;21.98;1.55;;;;;;;8.28;64.89;100707.00;10274297;28;20078;-60
2023/09/25 02:08:13;;;;;;;2.08;1.00;;;;;;;8.24;64.89;100708.03;10279600;28;20051;-61
2023/09/25 02:13:15;;;;;;;34.40;2.90;;;;;;;8.08;65.05;100701.66;10324629;28;20089;-60
2023/09/25 02:18:17;;;;;;;1.63;0.93;;;;;;;8.08;65.39;100702.50;10304131;28;20142;-61
2023/09/25 02:23:20;;;;;;;43.25;2.38;;;;;;;7.97;65.20;100691.63;10228154;28;20070;-61
2023/09/25 02:28:21;;;;;;;12.32;2.13;;;;;;;7.86;65.49;100693.78;10213592;28;20498;-60
2023/09/25 02:33:23;;;;;;;16.17;2.28;;;;;;;7.88;65.44;100685.00;10228720;28;20108;-61
2023/09/25 02:38:26;;;;;;;68.95;5.90;;;;;;;7.95;65.33;100685.63;10229127;28;20138;-60
2023/09/25 02:43:29;;;;;;;104.65;3.92;;;;;;;7.94;65.24;100683.91;10258330;28;20238;-61
2023/09/25 02:48:31;;;;;;;16.17;1.73;;;;;;;7.84;65.39;100680.81;10226600;28;20130;-61
2023/09/25 02:53:33;;;;;;;6.80;1.73;;;;;;;7.83;65.44;100679.09;10228599;28;20136;-61
2023/09/25 02:58:35;;;;;;;1.00;0.88;;;;;;;7.86;65.56;100681.59;10227273;28;20143;-61
2023/09/25 03:03:39;;;;;;;12.80;2.60;;;;;;;7.84;65.30;100677.34;10222612;28;20710;-61
2023/09/25 03:08:41;;;;;;;26.13;2.53;;;;;;;7.66;65.39;100685.84;10236175;28;20286;-61
2023/09/25 03:13:43;;;;;;;24.40;2.20;;;;;;;7.58;65.53;100700.88;10218458;28;20055;-61
2023/09/25 03:18:44;;;;;;;10.93;1.75;;;;;;;7.51;65.64;100705.44;10220208;28;20044;-61
2023/09/25 03:23:47;;;;;;;2.20;1.10;;;;;;;7.56;65.69;100700.09;10220975;28;20047;-60
2023/09/25 03:28:49;;;;;;;31.40;2.47;;;;;;;7.41;65.85;100701.47;10221230;28;20047;-61
2023/09/25 03:33:51;;;;;;;35.53;4.15;;;;;;;7.33;65.65;100700.88;10219776;28;20089;-61
2023/09/25 03:38:55;;;;;;;51.38;2.88;;;;;;;7.26;65.61;100696.81;10233981;28;20578;-61
2023/09/25 03:43:57;;;;;;;1.05;0.88;;;;;;;7.21;66.75;100693.50;10219150;28;20058;-61
2023/09/25 03:49:05;;;;;;;1.05;0.88;;;;;;;7.38;66.12;100687.72;10219986;28;20187;-61
2023/09/25 03:54:08;;;;;;;0.75;0.75;;;;;;;7.50;65.90;100690.75;10219459;28;20769;-61
2023/09/25 03:59:11;;;;;;;0.77;0.77;;;;;;;7.49;65.76;100686.44;10218498;28;20047;-61
2023/09/25 04:04:13;;;;;;;0.98;0.80;;;;;;;7.55;65.77;100695.81;10218536;28;20055;-61
2023/09/25 04:09:15;;;;;;;1.73;0.90;;;;;;;7.61;65.55;100698.19;10217766;28;20046;-61
2023/09/25 04:14:18;;;;;;;1.20;0.90;;;;;;;7.68;65.39;100697.91;10192800;28;20420;-61
2023/09/25 04:19:20;;;;;;;1.13;1.00;;;;;;;7.68;65.37;100703.09;10216951;28;20045;-61
2023/09/25 04:24:23;;;;;;;5.25;1.00;;;;;;;7.60;65.16;100699.06;10286161;28;20074;-61
2023/09/25 04:29:24;;;;;;;21.40;2.78;;;;;;;7.53;65.40;100706.25;10296971;28;20494;-61
2023/09/25 04:34:26;;;;;;;48.67;2.45;;;;;;;7.42;65.42;100702.31;10298245;28;20050;-61
2023/09/25 04:39:32;;;;;;;43.33;2.88;;;;;;;7.38;65.51;100708.53;10281592;28;20506;-61
2023/09/25 04:44:34;;;;;;;13.10;2.08;;;;;;;7.27;65.51;100710.63;10295989;28;20050;-61
2023/09/25 04:49:36;;;;;;;5.43;1.45;;;;;;;7.32;65.58;100703.53;10298802;28;20042;-61
2023/09/25 04:54:40;;;;;;;18.98;1.38;;;;;;;7.24;65.46;100709.00;10298148;28;20494;-61
2023/09/25 04:59:43;;;;;;;21.25;2.38;;;;;;;7.16;65.53;100713.63;10297381;28;20047;-61
2023/09/25 05:04:45;;;;;;;1.20;0.90;;;;;;;7.10;65.71;100719.84;10280031;28;20133;-61
2023/09/25 05:09:47;;;;;;;3.38;1.02;;;;;;;7.12;65.67;100712.84;10297742;28;20432;-61
2023/09/25 05:14:49;;;;;;;0.80;0.80;;;;;;;7.25;65.51;100718.50;10297897;28;20043;-61
2023/09/25 05:19:51;;;;;;;13.13;1.40;;;;;;;7.35;65.54;100730.28;10297010;28;20049;-61
2023/09/25 05:24:53;;;;;;;4.55;1.50;;;;;;;7.41;65.26;100727.47;10296983;28;20066;-61
2023/09/25 05:29:57;;;;;;;3.85;1.10;;;;;;;7.47;65.20;100723.84;10279894;28;20129;-61
2023/09/25 05:34:59;;;;;;;53.67;3.20;;;;;;;7.53;65.10;100716.66;10295784;28;20501;-61
2023/09/25 05:40:02;;;;;;;63.72;4.03;;;;;;;7.57;65.19;100720.03;10279131;28;20490;-61
2023/09/25 05:45:06;;;;;;;2.60;1.45;;;;;;;7.72;65.14;100724.66;10293360;28;20498;-61
2023/09/25 05:50:09;;;;;;;18.42;2.25;;;;;;;7.89;65.21;100733.59;10297593;28;20043;-61
2023/09/25 05:55:11;;;;;;;16.95;2.03;;;;;;;8.11;64.96;100738.91;10264026;28;20050;-61
2023/09/25 06:00:13;;;;;;;12.90;2.33;;;;;;;8.27;64.74;100734.81;10296262;28;20423;-61
2023/09/25 06:05:16;;;;;;;3.60;1.20;;;;;;;8.42;64.80;100736.84;10277616;28;20085;-62
2023/09/25 06:10:18;;;;;;;44.78;3.15;;;;;;;8.55;64.50;100735.44;10295284;28;20065;-62
2023/09/25 06:15:23;;;;;;;62.97;2.95;;;;;;;8.75;64.45;100748.56;10295838;28;20042;-61
2023/09/25 06:20:26;;;;;;;6.15;1.83;;;;;;;8.95;64.32;100746.94;10295671;28;20034;-62
2023/09/25 06:25:32;;;;;;;10.88;1.90;;;;;;;9.12;64.10;100744.47;10295385;28;20529;-61
2023/09/25 06:30:34;;;;;;;32.92;2.85;;;;;;;9.27;64.01;100736.88;10291986;28;20419;-61
2023/09/25 06:35:37;;;;;;;27.98;1.67;;;;;;;9.26;63.90;100745.59;10291320;28;20236;-63
2023/09/25 06:40:46;;;;;;;5.57;1.40;;;;;;;9.30;64.02;100754.19;10294076;28;20047;-62
2023/09/25 06:45:48;;;;;;;3.17;1.20;;;;;;;9.54;63.77;100755.75;10288581;28;20365;-62
2023/09/25 06:50:50;;;;;;;30.58;2.28;;;;;;;9.65;63.38;100754.38;10289899;28;20053;-62
2023/09/25 06:55:52;;;;;;;2.97;1.25;;;;;;;9.83;63.40;100767.59;10293184;28;20069;-62
2023/09/25 07:00:54;;;;;;;8.57;1.98;;;;;;;9.67;63.45;100756.94;10264248;28;20042;-63
2023/09/25 07:05:58;;;;;;;1.85;1.30;;;;;;;9.85;63.56;100757.94;10297311;28;20046;-62
2023/09/25 07:11:00;;;;;;;2.13;1.20;;;;;;;10.05;63.35;100758.75;10297208;28;20420;-62
2023/09/25 07:16:08;;;;;;;1.63;1.38;;;;;;;10.33;63.48;100755.75;10300600;28;20437;-62
2023/09/25 07:21:11;;;;;;;2.30;1.40;;;;;;;10.23;63.29;100760.56;10297447;28;20039;-62
2023/09/25 07:26:15;;;;;;;2.60;1.45;;;;;;;10.30;63.39;100761.09;10279383;28;20046;-63
2023/09/25 07:31:19;;;;;;;2.25;1.40;;;;;;;10.19;63.50;100765.97;10297567;28;20137;-62
2023/09/25 07:36:21;;;;;;;2.92;1.50;;;;;;;10.57;63.57;100753.75;10298418;28;20050;-62
2023/09/25 07:41:24;;;;;;;2.60;1.40;;;;;;;11.09;63.17;100753.84;10293562;28;20050;-62
2023/09/25 07:46:26;;;;;;;3.20;1.60;;;;;;;11.60;62.25;100753.00;10295508;28;20486;-62
2023/09/25 07:51:29;;;;;;;2.63;1.70;;;;;;;12.11;61.68;100744.22;10292185;28;20038;-62
2023/09/25 07:56:31;;;;;;;1.95;1.20;;;;;;;12.63;60.82;100731.78;10295569;28;20051;-62
2023/09/25 08:01:34;;;;;;;2.80;1.60;;;;;;;13.11;60.01;100723.75;10292966;28;20062;-62
2023/09/25 08:06:36;;;;;;;3.70;2.10;;;;;;;13.55;59.03;100735.19;10289674;28;20442;-62
2023/09/25 08:11:38;;;;;;;6.55;1.90;;;;;;;13.94;58.46;100737.22;10289420;28;20157;-62
2023/09/25 08:16:40;;;;;;;2.13;1.48;;;;;;;13.81;58.46;100746.78;10295066;28;20542;-62
2023/09/25 08:21:43;;;;;;;3.10;1.60;;;;;;;14.24;58.21;100742.38;10296443;28;20050;-62
2023/09/25 08:26:48;;;;;;;3.78;2.22;;;;;;;14.74;57.82;100752.34;10297981;28;20061;-62
2023/09/25 08:31:51;;;;;;;4.35;1.63;;;;;;;15.00;56.87;100746.28;10297292;28;20049;-62
2023/09/25 08:36:53;;;;;;;4.00;1.80;;;;;;;15.07;56.65;100742.28;10299370;28;20482;-62
2023/09/25 08:41:57;;;;;;;2.85;1.60;;;;;;;15.16;55.50;100734.63;10280791;28;20042;-62
2023/09/25 08:46:59;;;;;;;3.22;1.55;;;;;;;15.30;55.25;100731.09;10296116;28;20053;-62
2023/09/25 08:52:01;;;;;;;4.68;2.05;;;;;;;15.28;55.38;100728.56;10295142;28;20330;-62
2023/09/25 08:57:05;;;;;;;3.42;1.65;;;;;;;15.51;55.02;100736.75;10297228;28;20054;-62
2023/09/25 09:02:08;;;;;;;3.10;1.63;;;;;;;15.54;54.38;100732.09;10297263;28;20061;-62
2023/09/25 09:07:11;;;;;;;2.83;1.60;;;;;;;15.82;53.53;100724.00;10263024;28;20046;-62
2023/09/25 09:12:13;;;;;;;2.90;1.73;;;;;;;15.84;54.02;100714.19;10279892;28;20046;-62
2023/09/25 09:17:15;;;;;;;3.65;1.50;;;;;;;16.17;53.54;100722.41;10298491;28;20049;-62
2023/09/25 09:22:18;;;;;;;2.17;1.20;;;;;;;16.22;52.41;100709.69;10300222;28;20054;-62
2023/09/25 09:27:20;;;;;;;2.47;1.38;;;;;;;16.34;52.23;100712.44;10295480;28;20141;-62
2023/09/25 09:32:23;;;;;;;2.80;1.50;;;;;;;16.61;52.25;100705.22;10295785;28;20058;-62
2023/09/25 09:37:25;;;;;;;3.53;1.30;;;;;;;16.91;51.99;100702.97;10296848;28;20061;-62
2023/09/25 09:42:31;;;;;;;2.45;1.40;;;;;;;17.28;51.32;100693.16;10262427;28;20049;-62
2023/09/25 09:47:39;;;;;;;2.63;1.30;;;;;;;17.36;51.19;100691.66;10292215;28;20503;-62
2023/09/25 09:52:42;;;;;;;2.20;0.98;;;;;;;17.72;50.64;100678.25;10277537;28;20047;-62
2023/09/25 09:57:45;;;;;;;3.33;1.10;;;;;;;17.75;50.15;100669.22;10296241;28;20054;-62
2023/09/25 10:02:47;;;;;;;2.88;1.33;;;;;;;17.90;50.15;100673.31;10295239;28;20125;-62
2023/09/25 10:08:10;;;;;;;1.77;1.10;;;;;;;18.17;48.71;100659.69;10296122;28;20112;-62
2023/09/25 10:13:25;;;;;;;2.30;1.20;;;;;;;18.24;46.92;100663.59;10294953;28;20050;-62
2023/09/25 10:18:31;;;;;;;3.60;1.48;;;;;;;18.37;48.71;100653.69;10272886;28;20057;-62
2023/09/25 10:23:34;;;;;;;2.53;1.17;;;;;;;18.26;48.13;100651.88;10283658;28;20494;-62
2023/09/25 10:28:38;;;;;;;3.20;1.35;;;;;;;18.35;48.54;100647.66;10295846;28;20108;-62
2023/09/25 10:33:53;;;;;;;2.42;1.20;;;;;;;18.29;48.51;100637.56;10296102;28;20085;-62
2023/09/25 10:38:59;;;;;;;2.33;1.17;;;;;;;18.61;48.50;100636.63;10299107;28;20223;-62
2023/09/25 10:44:01;;;;;;;5.43;1.40;;;;;;;18.60;48.01;100631.47;10298365;28;20077;-62
2023/09/25 10:49:05;;;;;;;3.13;1.60;;;;;;;18.38;48.89;100636.84;10298473;28;20524;-62
2023/09/25 10:54:07;;;;;;;4.25;1.50;;;;;;;18.35;48.82;100621.19;10296363;28;20380;-62
2023/09/25 10:59:10;;;;;;;2.85;1.33;;;;;;;18.41;49.15;100620.69;10280335;28;20133;-62
2023/09/25 11:04:12;;;;;;;2.47;1.30;;;;;;;18.50;48.34;100606.69;10298674;28;20148;-62
2023/09/25 11:09:18;;;;;;;4.43;1.50;;;;;;;18.56;47.87;100601.72;10300848;28;20054;-62
2023/09/25 11:14:21;;;;;;;3.85;1.40;;;;;;;18.61;48.63;100602.19;10299323;28;20049;-62
2023/09/25 11:19:24;;;;;;;2.83;1.40;;;;;;;18.82;48.74;100602.22;10297429;28;20060;-62
2023/09/25 11:24:31;;;;;;;1.95;1.23;;;;;;;19.09;47.71;100596.47;10280856;28;20314;-62
2023/09/25 11:29:35;;;;;;;2.65;1.20;;;;;;;18.92;47.08;100589.03;10297586;28;20053;-62
2023/09/25 11:34:39;;;;;;;1.77;1.30;;;;;;;19.07;47.02;100588.63;10299324;28;20592;-62
2023/09/25 11:39:40;;;;;;;2.20;1.08;;;;;;;19.20;46.13;100580.47;10296448;28;20042;-62
2023/09/25 11:44:43;;;;;;;4.43;1.50;;;;;;;19.40;46.20;100577.78;10296036;28;20394;-62
2023/09/25 11:49:45;;;;;;;1.55;1.00;;;;;;;19.61;45.33;100577.75;10265739;28;20429;-62
2023/09/25 11:54:48;;;;;;;2.60;1.30;;;;;;;19.86;45.01;100566.69;10296882;28;20302;-62
2023/09/25 11:59:50;;;;;;;3.10;1.20;;;;;;;20.06;44.57;100554.31;10298959;28;20061;-62
2023/09/25 12:04:57;;;;;;;7.18;1.60;;;;;;;20.36;41.58;100559.50;10299643;28;20053;-62
2023/09/25 12:10:00;;;;;;;18.00;2.22;;;;;;;20.43;39.36;100557.97;10278053;28;20050;-62
2023/09/25 12:15:03;;;;;;;10.23;1.58;;;;;;;20.56;40.29;100545.25;10273878;28;20042;-62
2023/09/25 12:20:14;;;;;;;5.78;1.70;;;;;;;20.69;40.77;100555.63;10296181;28;20055;-62
2023/09/25 12:25:16;;;;;;;2.33;1.25;;;;;;;20.82;40.67;100554.38;10296883;28;20066;-62
2023/09/25 12:30:19;;;;;;;34.42;3.25;;;;;;;20.82;39.77;100551.72;10291826;28;20039;-63
2023/09/25 12:35:21;;;;;;;5.70;1.40;;;;;;;20.74;39.30;100546.25;10297617;28;20471;-62
2023/09/25 12:40:24;;;;;;;9.32;2.17;;;;;;;20.86;39.56;100537.16;10298673;28;20507;-62
2023/09/25 12:45:26;;;;;;;13.98;2.30;;;;;;;20.95;38.64;100544.25;10298804;28;20061;-62
2023/09/25 12:50:28;;;;;;;3.40;1.30;;;;;;;21.05;38.77;100538.91;10297295;28;20039;-62
2023/09/25 12:55:33;;;;;;;5.13;1.50;;;;;;;21.14;38.83;100526.56;10296360;28;20120;-62
2023/09/25 13:00:37;;;;;;;3.90;1.27;;;;;;;21.28;38.40;100536.75;10275219;28;20137;-62
2023/09/25 13:05:39;;;;;;;2.13;1.00;;;;;;;21.24;38.46;100536.22;10295683;28;20042;-62
2023/09/25 13:10:41;;;;;;;6.05;1.75;;;;;;;21.29;38.14;100533.97;10279535;28;20042;-62
2023/09/25 13:15:43;;;;;;;4.05;1.15;;;;;;;21.43;38.10;100533.53;10273223;28;20039;-62
2023/09/25 13:20:46;;;;;;;4.25;1.30;;;;;;;21.46;38.17;100541.19;10296988;28;20059;-62
2023/09/25 13:25:49;;;;;;;7.93;1.67;;;;;;;21.56;38.27;100527.84;10296014;28;20056;-62
2023/09/25 13:30:51;;;;;;;5.75;1.60;;;;;;;21.51;37.11;100522.97;10296926;28;20052;-62
2023/09/25 13:35:53;;;;;;;1.70;1.00;;;;;;;21.42;37.72;100528.31;10294940;28;20039;-62
2023/09/25 13:40:55;;;;;;;2.13;1.40;;;;;;;21.58;38.53;100528.53;10301268;28;20506;-62
2023/09/25 13:45:57;;;;;;;4.65;1.30;;;;;;;21.55;37.65;100531.50;10293776;28;20042;-62
2023/09/25 13:50:59;;;;;;;1.65;0.88;;;;;;;21.64;38.16;100523.47;10296327;28;20143;-62
2023/09/25 13:56:02;;;;;;;2.25;1.25;;;;;;;21.63;37.49;100518.28;10292019;28;20035;-62
2023/09/25 14:01:05;;;;;;;15.77;2.22;;;;;;;21.67;37.21;100522.34;10295764;28;20556;-62
2023/09/25 14:06:08;;;;;;;8.82;1.65;;;;;;;21.67;36.84;100530.31;10287686;28;20046;-62
2023/09/25 14:11:10;;;;;;;29.42;4.43;;;;;;;21.66;37.74;100521.47;10291067;28;20099;-62
2023/09/25 14:16:12;;;;;;;49.70;5.35;;;;;;;21.65;37.58;100519.81;10296076;28;20054;-62
2023/09/25 14:21:17;;;;;;;10.73;1.88;;;;;;;21.75;37.34;100511.78;10291863;28;20100;-62
2023/09/25 14:26:19;;;;;;;31.35;3.88;;;;;;;21.79;37.29;100515.81;10294366;28;20425;-62
2023/09/25 14:31:21;;;;;;;24.77;2.50;;;;;;;21.97;37.32;100514.00;10292489;28;20656;-62
2023/09/25 14:36:23;;;;;;;3.38;1.20;;;;;;;22.01;37.20;100507.41;10265011;28;20055;-62
2023/09/25 14:41:25;;;;;;;3.63;1.20;;;;;;;21.96;37.37;100508.84;10292719;28;20560;-62
2023/09/25 14:46:28;;;;;;;3.80;1.45;;;;;;;21.92;37.83;100496.81;10293816;28;20050;-62
2023/09/25 14:51:30;;;;;;;2.67;1.20;;;;;;;21.90;37.91;100494.31;10296481;28;20042;-62
2023/09/25 14:56:32;;;;;;;14.25;2.17;;;;;;;21.96;37.82;100507.03;10294193;28;20053;-63
2023/09/25 15:01:34;;;;;;;15.82;2.72;;;;;;;21.74;37.81;100510.94;10292368;28;20178;-62
2023/09/25 15:06:36;;;;;;;3.75;1.30;;;;;;;21.64;38.33;100518.13;10280243;28;20054;-62
2023/09/25 15:11:38;;;;;;;15.07;2.05;;;;;;;21.64;38.44;100517.31;10302953;28;20042;-62
2023/09/25 15:16:40;;;;;;;9.02;1.60;;;;;;;21.45;38.56;100523.56;10298681;28;20443;-62
2023/09/25 15:21:43;;;;;;;10.07;2.10;;;;;;;21.36;39.12;100527.09;10297718;28;20395;-61
2023/09/25 15:26:46;;;;;;;4.28;1.27;;;;;;;21.32;39.12;100524.88;10300157;28;20054;-62
2023/09/25 15:31:48;;;;;;;2.33;1.13;;;;;;;21.28;39.21;100515.47;10301851;28;20053;-61
2023/09/25 15:36:50;;;;;;;4.65;1.23;;;;;;;21.34;39.45;100517.56;10271272;28;20046;-61
2023/09/25 15:41:52;;;;;;;2.10;1.02;;;;;;;21.26;40.09;100517.44;10299461;28;20038;-62
2023/09/25 15:46:54;;;;;;;2.00;1.05;;;;;;;21.27;40.10;100521.78;10297519;28;20042;-62
2023/09/25 15:51:57;;;;;;;2.05;1.15;;;;;;;21.30;41.02;100521.47;10295040;28;20049;-62
2023/09/25 15:56:59;;;;;;;2.28;1.10;;;;;;;21.26;41.84;100525.41;10297765;28;20131;-61
2023/09/25 16:02:01;;;;;;;2.65;0.80;;;;;;;21.17;42.20;100516.47;10294113;28;20065;-62
2023/09/25 16:07:06;;;;;;;3.95;1.02;;;;;;;21.00;42.54;100507.44;10296080;28;20054;-62
2023/09/25 16:12:08;;;;;;;2.05;1.00;;;;;;;20.93;42.80;100511.66;10295239;28;20057;-62
2023/09/25 16:17:11;;;;;;;2.17;1.33;;;;;;;20.78;42.69;100520.22;10294946;28;20358;-62
2023/09/25 16:22:13;;;;;;;1.90;1.02;;;;;;;20.56;43.01;100528.47;10276195;28;20078;-62
2023/09/25 16:27:15;;;;;;;2.78;1.30;;;;;;;20.22;43.51;100538.66;10294946;28;20054;-62
2023/09/25 16:32:17;;;;;;;2.67;1.30;;;;;;;19.87;45.13;100525.03;10281097;28;20056;-62
2023/09/25 16:37:20;;;;;;;2.13;1.10;;;;;;;19.52;46.16;100522.84;10313963;28;20058;-61
2023/09/25 16:42:24;;;;;;;4.20;1.35;;;;;;;19.28;46.26;100522.28;10279823;28;20941;-62
2023/09/25 16:47:26;;;;;;;3.08;1.55;;;;;;;19.18;46.89;100532.88;10300020;28;20135;-62
2023/09/25 16:52:28;;;;;;;2.05;1.15;;;;;;;19.03;47.72;100536.00;10296470;28;20054;-62
2023/09/25 16:57:30;;;;;;;2.10;1.20;;;;;;;18.95;48.47;100552.50;10299546;28;20250;-63
2023/09/25 17:02:32;;;;;;;1.50;0.98;;;;;;;18.83;48.48;100556.19;10282053;28;20129;-62
2023/09/25 17:07:34;;;;;;;1.92;1.00;;;;;;;18.57;48.83;100562.81;10298966;28;20050;-63
2023/09/25 17:12:36;;;;;;;2.15;1.30;;;;;;;18.28;49.26;100569.69;10300995;28;20129;-63
2023/09/25 17:17:38;;;;;;;1.58;0.93;;;;;;;18.03;50.17;100580.56;10298915;28;20146;-62
2023/09/25 17:22:40;;;;;;;3.58;1.27;;;;;;;17.77;50.60;100580.81;10283335;28;20587;-61
2023/09/25 17:27:42;;;;;;;5.88;1.50;;;;;;;17.59;51.21;100574.34;10298351;28;20171;-62
2023/09/25 17:32:44;;;;;;;6.57;1.63;;;;;;;17.41;51.56;100589.00;10279954;28;20092;-61
2023/09/25 17:37:46;;;;;;;2.63;1.38;;;;;;;17.14;52.40;100588.44;10297223;28;20521;-60
2023/09/25 17:42:48;;;;;;;2.38;1.30;;;;;;;16.93;52.68;100582.16;10275677;28;20046;-60
2023/09/25 17:47:51;;;;;;;1.88;1.10;;;;;;;16.69;53.51;100584.81;10287333;28;20053;-60
2023/09/25 17:52:54;;;;;;;1.70;1.10;;;;;;;16.54;53.75;100583.34;10297009;28;20531;-60
2023/09/25 17:57:56;;;;;;;4.13;1.30;;;;;;;16.40;53.99;100583.50;10298592;28;20792;-60
2023/09/25 18:02:58;;;;;;;6.47;1.70;;;;;;;16.20;54.37;100582.28;10296951;28;20050;-60
2023/09/25 18:08:00;;;;;;;1.92;1.20;;;;;;;15.96;54.83;100586.69;10280717;28;20172;-60
2023/09/25 18:13:03;;;;;;;1.80;1.20;;;;;;;15.74;55.55;100597.09;10296227;28;20049;-60
2023/09/25 18:18:05;;;;;;;2.25;1.20;;;;;;;15.68;55.88;100592.25;10297789;28;20141;-60
2023/09/25 18:23:07;;;;;;;2.05;1.27;;;;;;;15.58;56.03;100585.94;10279776;28;20521;-60
2023/09/25 18:28:10;;;;;;;2.85;1.50;;;;;;;15.46;56.57;100592.03;10298369;28;20387;-60
2023/09/25 18:33:12;;;;;;;2.30;1.25;;;;;;;15.22;56.86;100602.47;10296814;28;20062;-60
2023/09/25 18:38:14;;;;;;;4.25;1.30;;;;;;;14.96;57.41;100610.47;10296312;28;20046;-60
2023/09/25 18:43:16;;;;;;;3.80;1.60;;;;;;;14.94;57.46;100620.25;10284585;28;20066;-60
2023/09/25 18:48:18;;;;;;;1.88;1.30;;;;;;;14.88;57.68;100615.41;10304848;28;20060;-60
2023/09/25 18:53:22;;;;;;;2.90;1.50;;;;;;;14.76;58.18;100618.84;10285721;28;20265;-60
2023/09/25 18:58:24;;;;;;;4.57;1.40;;;;;;;14.65;58.35;100619.53;10304316;28;20286;-60
2023/09/25 19:03:26;;;;;;;3.63;1.30;;;;;;;14.59;58.69;100625.22;10306033;28;20062;-59
2023/09/25 19:08:29;;;;;;;4.95;1.65;;;;;;;14.41;58.85;100619.31;10299928;28;20167;-60
2023/09/25 19:13:31;;;;;;;3.22;1.63;;;;;;;14.32;59.26;100617.28;10283622;28;20202;-60
2023/09/25 19:18:44;;;;;;;3.70;1.40;;;;;;;14.25;59.61;100621.22;10301602;28;20063;-60
2023/09/25 19:23:46;;;;;;;2.92;1.40;;;;;;;14.16;59.46;100627.09;10300748;28;20050;-60
2023/09/25 19:28:49;;;;;;;4.65;1.33;;;;;;;14.01;59.89;100621.94;10299042;28;20549;-60
2023/09/25 19:33:54;;;;;;;1.60;1.25;;;;;;;13.93;59.92;100632.09;10293869;28;20179;-60
2023/09/25 19:38:59;;;;;;;2.75;1.50;;;;;;;13.83;60.18;100629.22;10299726;28;20456;-60
2023/09/25 19:44:01;;;;;;;2.42;1.70;;;;;;;13.64;60.76;100628.63;10298169;28;20463;-60
2023/09/25 19:49:04;;;;;;;3.63;1.58;;;;;;;13.47;61.03;100634.09;10293069;28;20049;-60
2023/09/25 19:54:07;;;;;;;2.58;1.40;;;;;;;13.16;61.18;100628.94;10292092;28;20050;-60
2023/09/25 19:59:09;;;;;;;3.22;1.50;;;;;;;13.09;61.43;100633.72;10273294;28;20518;-60
2023/09/25 20:04:11;;;;;;;3.58;1.60;;;;;;;13.12;61.58;100632.69;10301750;28;20311;-59
2023/09/25 20:09:13;;;;;;;2.58;1.38;;;;;;;13.12;61.47;100628.28;10300084;28;20595;-60
2023/09/25 20:14:17;;;;;;;3.10;1.60;;;;;;;13.00;61.74;100636.03;10300851;28;20050;-60
2023/09/25 20:19:19;;;;;;;2.80;1.55;;;;;;;12.92;61.66;100639.94;10303093;28;20648;-59
2023/09/25 20:24:21;;;;;;;3.03;1.60;;;;;;;12.85;62.01;100636.00;10283249;28;20546;-59
2023/09/25 20:29:23;;;;;;;3.60;1.50;;;;;;;12.76;61.79;100654.06;10284022;28;20165;-59
2023/09/25 20:34:25;;;;;;;2.60;1.35;;;;;;;12.64;61.97;100654.75;10299963;28;20129;-59
2023/09/25 20:39:27;;;;;;;2.58;1.52;;;;;;;12.44;62.22;100657.63;10302293;28;20062;-60
2023/09/25 20:44:29;;;;;;;2.67;1.38;;;;;;;12.34;62.58;100657.31;10298332;28;20144;-59
2023/09/25 20:49:31;;;;;;;3.05;1.40;;;;;;;12.34;62.74;100659.94;10298153;28;20058;-59
2023/09/25 20:54:33;;;;;;;3.38;1.30;;;;;;;12.32;62.58;100647.81;10300032;28;20322;-59
2023/09/25 20:59:35;;;;;;;5.18;1.55;;;;;;;12.32;62.93;100653.06;10298605;28;20054;-59
2023/09/25 21:04:37;;;;;;;2.88;1.40;;;;;;;12.32;63.04;100651.31;10299605;28;21343;-59
2023/09/25 21:09:39;;;;;;;1.65;1.08;;;;;;;12.32;62.89;100643.44;10298515;28;20046;-59
2023/09/25 21:14:41;;;;;;;3.30;1.67;;;;;;;12.27;62.85;100645.44;10298627;28;20406;-59
2023/09/25 21:19:43;;;;;;;5.05;1.55;;;;;;;12.23;63.02;100643.94;10282291;28;20046;-59
2023/09/25 21:24:46;;;;;;;6.28;1.50;;;;;;;12.09;63.18;100649.06;10252458;28;20058;-59
2023/09/25 21:29:48;;;;;;;2.30;1.40;;;;;;;12.05;62.65;100650.16;10273730;28;20053;-59
2023/09/25 21:34:50;;;;;;;4.18;1.85;;;;;;;12.00;63.17;100652.19;10299194;28;20463;-59
2023/09/25 21:39:52;;;;;;;3.00;1.45;;;;;;;11.95;63.24;100646.34;10280229;28;20489;-59
2023/09/25 21:44:55;;;;;;;2.78;1.23;;;;;;;11.88;63.32;100637.13;10298829;28;20498;-59
2023/09/25 21:49:57;;;;;;;2.53;1.30;;;;;;;11.79;63.49;100642.84;10282453;28;20487;-59
2023/09/25 21:54:59;;;;;;;3.22;1.70;;;;;;;11.66;63.61;100631.34;10281235;28;20133;-59
2023/09/25 22:00:04;;;;;;;2.17;1.55;;;;;;;11.60;63.76;100642.97;10281774;28;20046;-59
2023/09/25 22:05:13;;;;;;;2.95;1.90;;;;;;;11.63;63.74;100636.75;10297419;28;20460;-59
2023/09/25 22:10:16;;;;;;;2.97;1.60;;;;;;;11.51;63.95;100629.53;10296857;28;20046;-59
2023/09/25 22:15:18;;;;;;;3.53;2.10;;;;;;;11.39;63.87;100632.78;10281567;28;20050;-59
2023/09/25 22:20:26;;;;;;;2.80;1.65;;;;;;;11.40;64.03;100632.69;10303362;28;20530;-60
2023/09/25 22:25:28;;;;;;;3.50;1.52;;;;;;;11.36;63.79;100630.34;10305348;28;20062;-60
2023/09/25 22:30:33;;;;;;;2.75;1.63;;;;;;;11.09;63.82;100624.75;10304941;28;20050;-59
2023/09/25 22:35:35;;;;;;;3.72;1.60;;;;;;;10.82;64.22;100640.03;10305094;28;20528;-59
2023/09/25 22:40:39;;;;;;;3.38;1.52;;;;;;;10.86;64.48;100638.09;10304345;28;20054;-59
2023/09/25 22:45:41;;;;;;;2.47;1.40;;;;;;;11.00;64.38;100631.25;10286948;28;20057;-59
2023/09/25 22:50:43;;;;;;;3.17;1.70;;;;;;;11.07;64.14;100631.84;10303451;28;20092;-59
2023/09/25 22:55:45;;;;;;;6.15;1.60;;;;;;;11.06;64.22;100630.13;10303709;28;20722;-59
2023/09/25 23:00:51;;;;;;;4.28;1.67;;;;;;;11.03;64.20;100631.09;10304341;28;20053;-59
2023/09/25 23:05:53;;;;;;;3.85;1.50;;;;;;;10.94;64.19;100630.72;10302150;28;20177;-60
2023/09/25 23:10:55;;;;;;;2.28;1.40;;;;;;;10.89;64.31;100637.97;10303223;28;20035;-60
2023/09/25 23:15:57;;;;;;;2.72;1.50;;;;;;;10.87;64.40;100626.69;10303145;28;20395;-60